Gaastra, MI (49927)

2:11 AM CDT on August 29, 2014 (GMT -0500)
Ford | Change Station
CLOSE
Current Station
Airport
Location: Iron Mountain,
Elevation: 1181 ft
Nearby Weather Stations

Elev 1181 ft 45.82 °N, 88.11 °W | Updated 17 minutes ago

Overcast
Overcast
59 °F
Feels Like 59 °F
N
6
Wind Variable Wind from SE

Today
High -- | Low -- °F
--% Chance of Precip.
Yesterday
High -- | Low -- °F
Precip. -- in
6:11 AM 7:38 PM
Waxing Crescent, 12% visible
Pressure 30.04 in
Visibility 10.0 miles
Clouds Few 4500 ft
Mostly Cloudy 6000 ft
Overcast 7500 ft
Dew Point 55 °F
Humidity 87%
Rainfall 0.00 in
Snow Depth Not available.
UV 0 out of 12
Pollen 8.90 out of 12
Air Quality Not available.
Flu Activity Not available.
METAR KIMT 290654Z AUTO 14005KT 10SM FEW045 BKN060 OVC075 15/13 A3004 RMK AO2 RAB33E45 SLP171 P0000 T01500128 TSNO

More Conditions Fewer Conditions

Pressure 30.04 in
Visibility 10.0 miles
Clouds Few 4500 ft
Mostly Cloudy 6000 ft
Overcast 7500 ft
Dew Point 55 °F
Humidity 87%
Rainfall 0.00 in
Snow Depth Not available.
UV 0 out of 12
Pollen 8.90 out of 12
Air Quality Not available.
Flu Activity Not available.
METAR KIMT 290654Z AUTO 14005KT 10SM FEW045 BKN060 OVC075 15/13 A3004 RMK AO2 RAB33E45 SLP171 P0000 T01500128 TSNO

More Conditions Fewer Conditions

10-Day Weather Forecast

Almanac

Astronomy

Aug. 29, 2014 Rise Set
Actual Time 6:11 AM CDT 7:38 PM CDT
Civil Twilight 5:40 AM CDT 8:09 PM CDT
Nautical Twilight 5:02 AM CDT 8:47 PM CDT
Astronomical Twilight 4:21 AM CDT 9:27 PM CDT
Moon 10:15 AM CDT 9:20 PM CDT
Length of Visible Light 14h 29m
Length of Day
13h 27m
Tomorrow will be 3m 7s shorter.
Waxing Crescent, 12% of the Moon is Illuminated
Today
Waxing Crescent
Sep 2
First Quarter
Sep 8
Full
Sep 15
Last Quarter
Sep 24
New

Today's Extremes

State Highs State Lows

Community

WunderPhotos

Upload Photos

1,748,197 photos uploaded!

Nearby

Snow Depth

Station Depth Elevation
No new snow has been reported.

Earthquake Activity

City Distance Mag. Time & Date
No recent earthquake activity has been reported nearby.
Minimum magnitude displayed is 2.5.

Coastal Water Temperatures

Place Temperature
No Stations Reporting

Nearby Weather Stations